Chamberino, New Mexico
Current Conditions -  °F | °C
As of 8:35 PM on Saturday 24 Jan 2015 (Local Time) from KLRU Reporting Station
Clear Clear  
Wind Chill: 29°   Ceiling: Unl
Heat Index: 35°   Visibility: 10mi
Dew Point: 27°   Wind: 7mph
Humidity: 74%   Direction: 310°NW
Pressure: 30.21"   Gusts: NA
Location:  32.05°N, 106.68°W
Report Text: KLRU 250335Z AUTO 31006KT 10SM CLR 02/M03 A3021 RMK AO2 T00161026
Loading
Personal Weather Stations






























Interactive Weather Map New forecast layout! Learn more

10-Day Weather Forecast

Advertisements
Track Severe Weather on mobile